createdAt,value
2017-04-19T00:00:05.748Z,5.59
2017-04-19T00:00:27.446Z,5.67
2017-04-19T00:01:30.047Z,5.73
2017-04-19T00:01:51.758Z,5.67
2017-04-19T00:02:54.337Z,5.47
2017-04-19T00:03:16.041Z,5.57
2017-04-19T00:04:19.689Z,5.51
2017-04-19T00:05:22.192Z,5.71
2017-04-19T00:05:44.048Z,5.70
2017-04-19T00:06:46.563Z,5.82
2017-04-19T00:07:22.609Z,5.78
2017-04-19T00:07:44.914Z,5.71
2017-04-19T00:08:16.179Z,5.57
2017-04-19T00:08:38.001Z,5.53
2017-04-19T00:09:09.250Z,5.45
2017-04-19T00:09:31.090Z,5.45
2017-04-19T00:10:02.341Z,5.51
2017-04-19T00:10:24.052Z,5.61
2017-04-19T00:10:55.321Z,5.78
2017-04-19T00:11:17.042Z,5.91
2017-04-19T00:11:43.532Z,6.00
2017-04-19T00:12:05.235Z,6.01
2017-04-19T00:12:31.808Z,6.03
2017-04-19T00:12:53.505Z,6.09
2017-04-19T00:13:15.223Z,6.13
2017-04-19T00:13:41.734Z,6.25
2017-04-19T00:14:03.562Z,6.32
2017-04-19T00:14:25.262Z,6.25
2017-04-19T00:14:56.519Z,6.11
2017-04-19T00:15:18.343Z,5.98
2017-04-19T00:15:40.050Z,5.98
2017-04-19T00:16:11.311Z,5.81
2017-04-19T00:16:33.114Z,5.73
2017-04-19T00:17:40.423Z,5.55
2017-04-19T00:18:02.225Z,5.49
2017-04-19T00:18:23.938Z,5.50
2017-04-19T00:18:45.654Z,5.49
2017-04-19T00:19:07.395Z,5.55
2017-04-19T00:19:29.213Z,5.53
2017-04-19T00:19:55.714Z,5.52
2017-04-19T00:20:17.413Z,5.47
2017-04-19T00:20:43.996Z,5.60
2017-04-19T00:21:05.702Z,5.75
2017-04-19T00:21:32.232Z,5.89
2017-04-19T00:21:54.020Z,6.03
2017-04-19T00:22:20.577Z,6.13
2017-04-19T00:22:42.295Z,6.14
2017-04-19T00:23:08.877Z,6.10
2017-04-19T00:23:30.598Z,6.13
2017-04-19T00:23:57.095Z,6.04
2017-04-19T00:24:18.817Z,5.82
2017-04-19T00:24:45.387Z,5.68
2017-04-19T00:25:07.098Z,5.61
2017-04-19T00:25:28.807Z,5.57
2017-04-19T00:26:04.833Z,5.65
2017-04-19T00:26:27.158Z,5.62
2017-04-19T00:26:48.894Z,5.53
2017-04-19T00:27:24.924Z,5.66
2017-04-19T00:27:47.242Z,5.74
2017-04-19T00:28:49.749Z,5.92
2017-04-19T00:29:52.340Z,5.69
2017-04-19T00:30:23.608Z,5.50
2017-04-19T00:30:45.325Z,5.45
2017-04-19T00:31:11.911Z,5.64
2017-04-19T00:31:33.606Z,5.75
2017-04-19T00:31:55.344Z,5.74
2017-04-19T00:32:21.900Z,5.88
2017-04-19T00:32:43.606Z,5.81
2017-04-19T00:33:19.641Z,5.78
2017-04-19T00:33:42.043Z,5.74
2017-04-19T00:34:18.114Z,5.62
2017-04-19T00:34:40.328Z,5.56
2017-04-19T00:35:47.697Z,5.93
2017-04-19T00:36:09.440Z,6.03
2017-04-19T00:36:45.487Z,6.10
2017-04-19T00:37:07.887Z,6.19
2017-04-19T00:37:34.383Z,6.18
2017-04-19T00:38:10.415Z,6.18
2017-04-19T00:38:32.798Z,6.08
2017-04-19T00:38:59.278Z,6.05
2017-04-19T00:40:01.883Z,6.19
2017-04-19T00:40:28.366Z,6.20
2017-04-19T00:41:35.749Z,5.92
2017-04-19T00:41:57.445Z,5.98
2017-04-19T00:43:00.044Z,6.01
2017-04-19T00:43:36.083Z,5.74
2017-04-19T00:43:58.306Z,5.80
2017-04-19T00:44:20.018Z,5.80
2017-04-19T00:45:22.603Z,6.07
2017-04-19T00:45:49.184Z,6.16
2017-04-19T00:46:10.914Z,6.18
2017-04-19T00:46:32.645Z,6.20
2017-04-19T00:47:03.887Z,6.31
2017-04-19T00:47:25.685Z,6.43
2017-04-19T00:47:52.257Z,6.45
2017-04-19T00:48:13.996Z,6.48
2017-04-19T00:48:35.961Z,6.28
2017-04-19T00:49:02.447Z,6.21
2017-04-19T00:49:24.274Z,6.12
2017-04-19T00:49:46.076Z,5.96
2017-04-19T00:50:12.648Z,5.96
2017-04-19T00:50:34.341Z,6.00
2017-04-19T00:51:05.607Z,6.03
2017-04-19T00:51:27.312Z,5.99
2017-04-19T00:51:58.564Z,6.08
2017-04-19T00:52:20.361Z,6.17
2017-04-19T00:52:51.629Z,6.16
2017-04-19T00:53:13.434Z,6.24
2017-04-19T00:53:49.364Z,6.31
2017-04-19T00:54:11.066Z,6.29
2017-04-19T00:54:32.875Z,6.26
2017-04-19T00:54:54.626Z,6.32
2017-04-19T00:55:16.372Z,6.42
2017-04-19T00:55:38.155Z,6.40
2017-04-19T00:55:59.912Z,6.35
2017-04-19T00:56:21.666Z,6.35
2017-04-19T00:56:43.436Z,6.05
2017-04-19T00:57:05.196Z,5.85
2017-04-19T00:57:26.943Z,5.77
2017-04-19T00:57:48.709Z,5.89
2017-04-19T00:58:10.486Z,5.99
2017-04-19T00:58:32.234Z,6.00
2017-04-19T00:58:53.978Z,6.13
2017-04-19T00:59:15.850Z,6.09
2017-04-19T00:59:37.625Z,6.15
2017-04-19T00:59:59.501Z,6.01
2017-04-19T01:00:21.269Z,5.83
2017-04-19T01:00:43.083Z,5.81
2017-04-19T01:01:04.867Z,5.95
2017-04-19T01:02:07.386Z,6.28
2017-04-19T01:02:29.138Z,6.34
2017-04-19T01:02:50.942Z,6.40
2017-04-19T01:03:12.690Z,6.24
2017-04-19T01:03:34.424Z,6.14
2017-04-19T01:03:56.217Z,6.19
2017-04-19T01:04:22.731Z,6.27
2017-04-19T01:04:44.535Z,6.18
2017-04-19T01:05:11.076Z,6.02
2017-04-19T01:05:32.782Z,5.85
2017-04-19T01:06:08.813Z,5.71
2017-04-19T01:06:31.114Z,5.70
2017-04-19T01:06:52.819Z,5.78
2017-04-19T01:07:14.595Z,5.85
2017-04-19T01:07:36.339Z,5.97
2017-04-19T01:07:58.086Z,6.02
2017-04-19T01:08:19.856Z,5.91
2017-04-19T01:08:41.632Z,5.80
2017-04-19T01:09:03.370Z,5.76
2017-04-19T01:09:25.119Z,5.87
2017-04-19T01:09:46.863Z,5.92
2017-04-19T01:10:08.618Z,6.04
2017-04-19T01:10:30.369Z,6.09
2017-04-19T01:10:52.136Z,6.16
2017-04-19T01:11:13.881Z,6.16
2017-04-19T01:11:35.624Z,6.28
2017-04-19T01:11:57.377Z,6.31
2017-04-19T01:12:19.133Z,6.13
2017-04-19T01:12:40.879Z,6.11
2017-04-19T01:13:02.647Z,6.19
2017-04-19T01:13:24.428Z,6.21
2017-04-19T01:14:26.963Z,6.19
2017-04-19T01:14:48.739Z,6.12
2017-04-19T01:15:10.544Z,6.15
2017-04-19T01:15:32.293Z,6.10
2017-04-19T01:15:54.078Z,6.06
2017-04-19T01:16:15.872Z,6.12
2017-04-19T01:16:37.619Z,6.15
2017-04-19T01:16:59.439Z,6.27
2017-04-19T01:17:21.138Z,6.26
2017-04-19T01:17:42.847Z,6.14
2017-04-19T01:18:04.568Z,5.92
2017-04-19T01:18:26.306Z,5.98
2017-04-19T01:18:48.259Z,6.10
2017-04-19T01:19:24.342Z,6.15
2017-04-19T01:19:46.618Z,6.13
2017-04-19T01:20:08.381Z,6.16
2017-04-19T01:20:30.138Z,6.17
2017-04-19T01:20:51.896Z,6.15
2017-04-19T01:21:13.643Z,6.14
2017-04-19T01:21:35.399Z,6.26
2017-04-19T01:21:57.151Z,6.33
2017-04-19T01:22:18.993Z,6.38
2017-04-19T01:22:40.742Z,6.29
2017-04-19T01:23:02.494Z,6.18
2017-04-19T01:23:24.220Z,6.19
2017-04-19T01:23:45.971Z,6.17
2017-04-19T01:24:07.708Z,6.01
2017-04-19T01:24:29.440Z,6.02
2017-04-19T01:24:51.197Z,6.02
2017-04-19T01:25:12.976Z,5.78
2017-04-19T01:25:34.756Z,5.71
2017-04-19T01:25:56.542Z,5.65
2017-04-19T01:26:18.356Z,5.51
2017-04-19T01:26:40.148Z,5.44
2017-04-19T01:27:01.874Z,5.55
2017-04-19T01:27:23.642Z,5.55
2017-04-19T01:27:45.394Z,5.65
2017-04-19T01:28:07.220Z,5.80
2017-04-19T01:28:29.011Z,5.92
2017-04-19T01:28:50.819Z,5.97
2017-04-19T01:29:12.562Z,6.00
2017-04-19T01:29:34.359Z,6.01
2017-04-19T01:29:56.123Z,5.98
2017-04-19T01:30:17.879Z,5.81
2017-04-19T01:30:39.686Z,5.64
2017-04-19T01:31:01.447Z,5.51
2017-04-19T01:31:23.184Z,5.55
2017-04-19T01:31:44.973Z,5.67
2017-04-19T01:32:06.692Z,5.77
2017-04-19T01:32:28.420Z,5.75
2017-04-19T01:32:50.187Z,5.76
2017-04-19T01:33:12.148Z,5.79
2017-04-19T01:33:33.900Z,5.91
2017-04-19T01:33:55.626Z,5.95
2017-04-19T01:34:17.365Z,5.88
2017-04-19T01:34:39.122Z,5.88
2017-04-19T01:35:00.877Z,5.82
2017-04-19T01:35:22.620Z,5.86
2017-04-19T01:35:44.378Z,5.81
2017-04-19T01:36:06.123Z,5.86
2017-04-19T01:36:27.914Z,5.77
2017-04-19T01:36:49.662Z,5.70
2017-04-19T01:37:11.402Z,5.81
2017-04-19T01:37:33.153Z,5.89
2017-04-19T01:37:54.904Z,5.89
2017-04-19T01:38:16.674Z,5.81
2017-04-19T01:38:38.417Z,5.95
2017-04-19T01:39:00.173Z,5.96
2017-04-19T01:39:21.905Z,6.00
2017-04-19T01:40:24.397Z,5.78
2017-04-19T01:40:46.215Z,5.64
2017-04-19T01:41:07.987Z,5.55
2017-04-19T01:41:29.801Z,5.53
2017-04-19T01:41:51.547Z,5.48
2017-04-19T01:42:13.304Z,5.56
2017-04-19T01:42:34.987Z,5.59
2017-04-19T01:42:56.743Z,5.50
2017-04-19T01:43:18.506Z,5.35
2017-04-19T01:43:40.291Z,5.29
2017-04-19T01:44:01.997Z,5.23
2017-04-19T01:44:23.756Z,5.16
2017-04-19T01:44:45.451Z,5.16
2017-04-19T01:45:07.169Z,5.19
2017-04-19T01:45:28.934Z,5.24
2017-04-19T01:45:50.726Z,5.26
2017-04-19T01:46:12.882Z,5.22
2017-04-19T01:46:34.662Z,5.26
2017-04-19T01:46:56.407Z,5.33
2017-04-19T01:47:18.230Z,5.38
2017-04-19T01:47:40.025Z,5.50
2017-04-19T01:48:01.745Z,5.56
2017-04-19T01:48:23.493Z,5.68
2017-04-19T01:48:45.390Z,5.62
2017-04-19T01:49:07.131Z,5.57
2017-04-19T01:49:28.907Z,5.51
2017-04-19T01:49:50.742Z,5.43
2017-04-19T01:50:12.447Z,5.47
2017-04-19T01:50:34.201Z,5.42
2017-04-19T01:50:55.987Z,5.42
2017-04-19T01:51:17.763Z,5.43
2017-04-19T01:51:39.502Z,5.49
2017-04-19T01:52:01.444Z,5.51
2017-04-19T01:52:23.208Z,5.41
2017-04-19T01:52:44.968Z,5.34
2017-04-19T01:53:06.713Z,5.28
2017-04-19T01:53:28.482Z,5.30
2017-04-19T01:53:50.235Z,5.30
2017-04-19T01:54:12.046Z,5.31
2017-04-19T01:54:33.785Z,5.41
2017-04-19T01:54:55.541Z,5.44
2017-04-19T01:55:17.341Z,5.41
2017-04-19T01:55:39.126Z,5.36
2017-04-19T01:56:00.898Z,5.45
2017-04-19T01:56:22.664Z,5.33
2017-04-19T01:56:44.431Z,5.24
2017-04-19T01:57:06.143Z,5.19
2017-04-19T01:57:27.830Z,5.14
2017-04-19T01:57:49.646Z,5.17
2017-04-19T01:58:11.339Z,5.24
2017-04-19T01:58:33.233Z,5.16
2017-04-19T01:58:54.944Z,5.24
2017-04-19T01:59:16.721Z,5.31
2017-04-19T01:59:38.516Z,5.43
2017-04-19T02:00:00.283Z,5.35
2017-04-19T02:00:22.020Z,5.40
2017-04-19T02:00:43.836Z,5.40
2017-04-19T02:01:05.609Z,5.45
2017-04-19T02:01:27.430Z,5.50
2017-04-19T02:01:49.271Z,5.63
2017-04-19T02:02:11.035Z,5.70
2017-04-19T02:02:32.850Z,5.69
2017-04-19T02:02:54.609Z,5.68
2017-04-19T02:03:16.366Z,5.66
2017-04-19T02:03:38.221Z,5.61
2017-04-19T02:03:59.975Z,5.58
2017-04-19T02:04:21.739Z,5.60
2017-04-19T02:04:43.481Z,5.57
2017-04-19T02:05:05.424Z,5.59
2017-04-19T02:05:27.172Z,5.63
2017-04-19T02:05:48.982Z,5.69
2017-04-19T02:06:10.804Z,5.72
2017-04-19T02:06:32.634Z,5.72
2017-04-19T02:06:54.359Z,5.57
2017-04-19T02:07:16.155Z,5.48
2017-04-19T02:07:37.947Z,5.56
2017-04-19T02:07:59.662Z,5.62
2017-04-19T02:08:35.697Z,5.62
2017-04-19T02:08:58.071Z,5.69
2017-04-19T02:09:29.329Z,5.54
2017-04-19T02:09:51.107Z,5.57
2017-04-19T02:10:22.388Z,5.56
2017-04-19T02:10:44.111Z,5.53
2017-04-19T02:11:05.871Z,5.62
2017-04-19T02:11:41.905Z,5.72
2017-04-19T02:12:04.201Z,5.73
2017-04-19T02:12:25.982Z,5.82
2017-04-19T02:12:52.465Z,5.83
2017-04-19T02:13:14.161Z,5.85
2017-04-19T02:13:50.190Z,5.67
2017-04-19T02:14:12.614Z,5.74
2017-04-19T02:14:34.549Z,5.77
2017-04-19T02:15:01.121Z,5.77
2017-04-19T02:15:23.008Z,5.65
2017-04-19T02:15:44.725Z,5.41
2017-04-19T02:16:06.433Z,5.49
2017-04-19T02:16:28.229Z,5.57
2017-04-19T02:16:54.697Z,5.69
2017-04-19T02:17:16.402Z,5.77
2017-04-19T02:17:38.223Z,5.80
2017-04-19T02:17:59.933Z,5.89
2017-04-19T02:18:21.639Z,5.81
2017-04-19T02:18:43.352Z,5.72
2017-04-19T02:19:05.145Z,5.57
2017-04-19T02:19:26.835Z,5.48
2017-04-19T02:19:48.543Z,5.31
2017-04-19T02:20:10.291Z,5.35
2017-04-19T02:20:36.865Z,5.45
2017-04-19T02:20:58.558Z,5.45
2017-04-19T02:21:20.462Z,5.47
2017-04-19T02:21:42.170Z,5.56
2017-04-19T02:22:03.998Z,5.43
2017-04-19T02:22:25.709Z,5.31
2017-04-19T02:22:52.181Z,5.27
2017-04-19T02:23:13.973Z,5.27
2017-04-19T02:23:35.698Z,5.29
2017-04-19T02:24:06.971Z,5.40
2017-04-19T02:24:28.795Z,5.46
2017-04-19T02:24:55.277Z,5.57
2017-04-19T02:25:16.989Z,5.57
2017-04-19T02:26:19.594Z,5.54
2017-04-19T02:26:41.300Z,5.53
2017-04-19T02:27:17.337Z,5.48
2017-04-19T02:27:39.728Z,5.39
2017-04-19T02:28:06.218Z,5.25
2017-04-19T02:28:27.955Z,5.20
2017-04-19T02:28:49.654Z,5.26
2017-04-19T02:29:20.994Z,5.33
2017-04-19T02:29:42.702Z,5.39
2017-04-19T02:30:09.179Z,5.39
2017-04-19T02:30:30.882Z,5.41
2017-04-19T02:31:02.225Z,5.59
2017-04-19T02:31:23.924Z,5.57
2017-04-19T02:31:59.955Z,5.54
2017-04-19T02:32:22.326Z,5.60
2017-04-19T02:32:48.841Z,5.64
2017-04-19T02:33:10.671Z,5.44
2017-04-19T02:33:32.437Z,5.20
2017-04-19T02:33:54.136Z,5.13
2017-04-19T02:34:30.175Z,5.01
2017-04-19T02:34:52.548Z,4.95
2017-04-19T02:35:59.825Z,5.06
2017-04-19T02:36:21.615Z,5.01
2017-04-19T02:36:43.317Z,5.07
2017-04-19T02:37:09.791Z,5.20
2017-04-19T02:37:31.590Z,5.27
2017-04-19T02:37:53.324Z,5.36
2017-04-19T02:38:19.803Z,5.28
2017-04-19T02:38:41.534Z,5.24
2017-04-19T02:39:08.121Z,5.11
2017-04-19T02:39:29.846Z,5.09
2017-04-19T02:39:56.322Z,4.96
2017-04-19T02:40:18.036Z,4.85
2017-04-19T02:40:44.599Z,4.83
2017-04-19T02:41:06.296Z,4.83
2017-04-19T02:41:28.003Z,4.80
2017-04-19T02:42:04.037Z,4.71
2017-04-19T02:42:26.398Z,4.80
2017-04-19T02:42:48.115Z,4.90
2017-04-19T02:43:50.628Z,5.18
2017-04-19T02:44:12.308Z,5.27
2017-04-19T02:44:43.571Z,5.24
2017-04-19T02:45:05.368Z,5.24
2017-04-19T02:45:31.847Z,5.30
2017-04-19T02:45:53.565Z,5.38
2017-04-19T02:46:56.153Z,5.23
2017-04-19T02:47:17.855Z,5.22
2017-04-19T02:47:49.112Z,5.25
2017-04-19T02:48:10.942Z,5.10
2017-04-19T02:48:42.203Z,4.92
2017-04-19T02:49:03.903Z,4.87
2017-04-19T02:49:39.940Z,4.86
2017-04-19T02:50:02.217Z,4.96
2017-04-19T02:50:23.924Z,5.05
2017-04-19T02:51:26.509Z,5.36
2017-04-19T02:51:52.989Z,5.47
2017-04-19T02:52:55.619Z,5.33
2017-04-19T02:53:17.344Z,5.33
2017-04-19T02:53:48.592Z,5.26
2017-04-19T02:54:10.383Z,5.33
2017-04-19T02:54:32.107Z,5.38
2017-04-19T02:54:58.589Z,5.23
2017-04-19T02:55:20.404Z,5.20
2017-04-19T02:55:42.098Z,5.27
2017-04-19T02:56:08.570Z,5.27
2017-04-19T02:56:30.267Z,5.25
2017-04-19T02:56:52.047Z,5.25
2017-04-19T02:57:18.527Z,5.30
2017-04-19T02:57:40.245Z,5.43
2017-04-19T02:58:02.171Z,5.41
2017-04-19T02:58:28.746Z,5.23
2017-04-19T02:58:50.450Z,5.28
2017-04-19T02:59:12.158Z,5.11
2017-04-19T02:59:48.191Z,4.80
2017-04-19T03:00:10.648Z,4.92
2017-04-19T03:00:41.915Z,4.86
2017-04-19T03:01:03.624Z,4.87
2017-04-19T03:01:25.346Z,4.87
2017-04-19T03:01:51.829Z,4.88
2017-04-19T03:02:13.521Z,4.82
2017-04-19T03:02:40.013Z,4.80
2017-04-19T03:03:01.711Z,4.82
2017-04-19T03:03:37.747Z,4.79
2017-04-19T03:04:00.124Z,4.82
2017-04-19T03:04:21.831Z,4.80
2017-04-19T03:04:48.321Z,4.93
2017-04-19T03:05:10.052Z,5.00
2017-04-19T03:05:36.630Z,5.07
2017-04-19T03:05:58.377Z,4.99
2017-04-19T03:06:29.632Z,4.94
2017-04-19T03:06:51.430Z,4.81
2017-04-19T03:07:17.905Z,4.71
2017-04-19T03:07:39.620Z,4.65
2017-04-19T03:08:01.320Z,4.70
2017-04-19T03:08:23.127Z,4.58
2017-04-19T03:08:44.853Z,4.60
2017-04-19T03:09:06.576Z,4.58
2017-04-19T03:09:33.135Z,4.70
2017-04-19T03:09:54.840Z,4.75
2017-04-19T03:10:57.454Z,4.76
2017-04-19T03:11:23.931Z,4.72
2017-04-19T03:11:55.197Z,4.57
2017-04-19T03:12:16.899Z,4.55
2017-04-19T03:12:43.386Z,4.52
2017-04-19T03:13:05.101Z,4.46
2017-04-19T03:13:31.674Z,4.54
2017-04-19T03:13:53.402Z,4.66
2017-04-19T03:14:15.098Z,4.65
2017-04-19T03:14:46.344Z,4.64
2017-04-19T03:15:08.046Z,4.61
2017-04-19T03:15:34.536Z,4.65
2017-04-19T03:15:57.255Z,4.80
2017-04-19T03:16:23.832Z,4.78
2017-04-19T03:16:45.565Z,4.86
2017-04-19T03:17:16.846Z,5.06
2017-04-19T03:17:39.069Z,5.09
2017-04-19T03:18:08.039Z,5.05
2017-04-19T03:18:32.871Z,4.86
2017-04-19T03:18:54.888Z,4.90
2017-04-19T03:19:30.803Z,4.94
2017-04-19T03:19:53.381Z,4.87
2017-04-19T03:20:15.364Z,4.92
2017-04-19T03:20:41.998Z,4.89
2017-04-19T03:21:03.728Z,4.79
2017-04-19T03:21:35.004Z,4.85
2017-04-19T03:21:57.010Z,4.80
2017-04-19T03:22:18.782Z,4.76
2017-04-19T03:22:40.543Z,4.85
2017-04-19T03:23:02.493Z,4.94
2017-04-19T03:23:24.431Z,4.99
2017-04-19T03:23:46.170Z,5.14
2017-04-19T03:24:07.996Z,5.24
2017-04-19T03:24:29.970Z,5.07
2017-04-19T03:24:51.811Z,5.06
2017-04-19T03:25:13.648Z,4.98
2017-04-19T03:25:35.562Z,4.93
2017-04-19T03:25:57.573Z,4.92
2017-04-19T03:26:19.619Z,4.96
2017-04-19T03:26:41.497Z,4.84
2017-04-19T03:27:03.255Z,4.74
2017-04-19T03:28:05.870Z,4.65
2017-04-19T03:28:27.679Z,4.71
2017-04-19T03:28:49.512Z,4.73
2017-04-19T03:29:11.344Z,4.83
2017-04-19T03:29:59.803Z,4.70
2017-04-19T03:30:21.875Z,4.69
2017-04-19T03:30:43.737Z,4.69
2017-04-19T03:31:05.639Z,4.69
2017-04-19T03:31:30.506Z,4.69
2017-04-19T03:31:52.435Z,4.69
2017-04-19T03:32:14.185Z,4.74
2017-04-19T03:32:35.959Z,4.82
2017-04-19T03:32:57.805Z,4.97
2017-04-19T03:33:19.587Z,5.04
2017-04-19T03:33:43.747Z,5.12
2017-04-19T03:34:08.246Z,5.05
2017-04-19T03:34:36.959Z,4.90
2017-04-19T03:34:58.767Z,4.82
2017-04-19T03:35:25.620Z,4.76
2017-04-19T03:35:50.349Z,4.63
2017-04-19T03:36:17.107Z,4.60
2017-04-19T03:36:38.918Z,4.67
2017-04-19T03:37:37.267Z,4.58
2017-04-19T03:37:59.012Z,4.56
2017-04-19T03:38:47.579Z,4.54
2017-04-19T03:39:09.352Z,4.64
2017-04-19T03:39:34.276Z,4.62
2017-04-19T03:39:56.343Z,4.52
2017-04-19T03:40:18.381Z,4.56
2017-04-19T03:40:40.127Z,4.53
2017-04-19T03:41:04.918Z,4.58
2017-04-19T03:41:26.755Z,4.56
2017-04-19T03:41:48.467Z,4.63
2017-04-19T03:42:10.578Z,4.61
2017-04-19T03:42:32.467Z,4.60
2017-04-19T03:42:54.164Z,4.54
2017-04-19T03:43:15.929Z,4.46
2017-04-19T03:43:38.246Z,4.47
2017-04-19T03:44:00.158Z,4.50
2017-04-19T03:44:22.032Z,4.59
2017-04-19T03:44:46.663Z,4.60
2017-04-19T03:45:08.663Z,4.78
2017-04-19T03:45:35.334Z,4.96
2017-04-19T03:45:57.076Z,4.95
2017-04-19T03:46:19.040Z,4.90
2017-04-19T03:46:40.907Z,4.99
2017-04-19T03:47:02.688Z,5.07
2017-04-19T03:47:24.474Z,5.12
2017-04-19T03:47:46.435Z,5.11
2017-04-19T03:48:08.351Z,5.05
2017-04-19T03:48:30.129Z,4.93
2017-04-19T03:48:51.894Z,4.82
2017-04-19T03:49:14.367Z,4.69
2017-04-19T03:49:36.104Z,4.68
2017-04-19T03:49:57.937Z,4.63
2017-04-19T03:51:00.419Z,4.55
2017-04-19T03:51:22.215Z,4.60
2017-04-19T03:51:43.947Z,4.59
2017-04-19T03:52:05.926Z,4.60
2017-04-19T03:52:27.803Z,4.61
2017-04-19T03:52:49.539Z,4.57
2017-04-19T03:53:25.725Z,4.62
2017-04-19T03:53:52.954Z,4.63
2017-04-19T03:54:56.151Z,4.67
2017-04-19T03:55:17.921Z,4.67
2017-04-19T03:55:39.789Z,4.76
2017-04-19T03:56:01.721Z,4.82
2017-04-19T03:56:23.534Z,4.74
2017-04-19T03:56:45.237Z,4.76
2017-04-19T03:57:07.039Z,4.75
2017-04-19T03:57:28.797Z,4.76
2017-04-19T03:57:50.558Z,4.70
2017-04-19T03:58:12.320Z,4.58
2017-04-19T03:58:34.323Z,4.59
2017-04-19T03:58:56.183Z,4.77
2017-04-19T03:59:18.099Z,4.73
2017-04-19T03:59:40.016Z,4.76
2017-04-19T04:00:02.591Z,4.86
2017-04-19T04:00:24.360Z,4.95
2017-04-19T04:00:46.308Z,4.89
2017-04-19T04:01:08.093Z,4.90
2017-04-19T04:01:30.162Z,4.76
2017-04-19T04:02:32.660Z,4.70
2017-04-19T04:02:54.370Z,4.72
2017-04-19T04:03:16.344Z,4.61
2017-04-19T04:03:38.157Z,4.51
2017-04-19T04:03:59.874Z,4.53
2017-04-19T04:04:21.772Z,4.56
2017-04-19T04:04:43.674Z,4.50
2017-04-19T04:05:46.394Z,4.41
2017-04-19T04:06:10.915Z,4.43
2017-04-19T04:06:32.732Z,4.43
2017-04-19T04:06:54.471Z,4.42
2017-04-19T04:07:16.832Z,4.53
2017-04-19T04:07:38.935Z,4.57
2017-04-19T04:08:01.164Z,4.47
2017-04-19T04:08:27.711Z,4.49
2017-04-19T04:09:24.195Z,4.50
2017-04-19T04:10:00.270Z,4.50
2017-04-19T04:10:28.783Z,4.53
2017-04-19T04:10:57.861Z,4.61
2017-04-19T04:11:19.832Z,4.75
2017-04-19T04:11:42.108Z,4.67
2017-04-19T04:12:03.864Z,4.55
2017-04-19T04:12:25.630Z,4.48
2017-04-19T04:12:47.390Z,4.48
2017-04-19T04:13:09.420Z,4.48
2017-04-19T04:13:31.401Z,4.57
2017-04-19T04:13:53.147Z,4.66
2017-04-19T04:14:15.143Z,4.79
2017-04-19T04:14:37.079Z,4.88
2017-04-19T04:14:58.870Z,4.89
2017-04-19T04:15:20.868Z,4.89
2017-04-19T04:15:42.901Z,4.92
2017-04-19T04:16:04.726Z,4.74
2017-04-19T04:16:26.506Z,4.79
2017-04-19T04:16:48.337Z,4.86
2017-04-19T04:17:10.296Z,4.92
2017-04-19T04:17:32.195Z,5.00
2017-04-19T04:17:54.614Z,5.04
2017-04-19T04:18:17.421Z,5.12
2017-04-19T04:18:39.107Z,5.09
2017-04-19T04:19:01.010Z,5.15
2017-04-19T04:19:22.858Z,5.23
2017-04-19T04:19:44.611Z,5.09
2017-04-19T04:20:06.517Z,5.06
2017-04-19T04:20:28.467Z,5.10
2017-04-19T04:20:50.814Z,4.99
2017-04-19T04:21:12.547Z,4.94
2017-04-19T04:21:34.301Z,4.96
2017-04-19T04:21:56.124Z,4.95
2017-04-19T04:22:18.214Z,4.87
2017-04-19T04:22:40.035Z,4.83
2017-04-19T04:23:02.009Z,4.86
2017-04-19T04:23:23.970Z,4.94
2017-04-19T04:23:45.827Z,4.95
2017-04-19T04:24:10.113Z,4.82
2017-04-19T04:25:12.775Z,4.75
2017-04-19T04:26:15.300Z,4.90
2017-04-19T04:26:37.806Z,4.77
2017-04-19T04:26:59.543Z,4.77
2017-04-19T04:27:21.322Z,4.86
2017-04-19T04:27:43.059Z,4.74
2017-04-19T04:28:59.918Z,4.62
2017-04-19T04:29:22.290Z,4.56
2017-04-19T04:29:44.042Z,4.48
2017-04-19T04:30:15.343Z,4.40
2017-04-19T04:30:37.054Z,4.44
2017-04-19T04:30:58.815Z,4.47
2017-04-19T04:31:20.538Z,4.41
2017-04-19T04:31:42.248Z,4.27
2017-04-19T04:32:03.970Z,4.27
2017-04-19T04:32:25.735Z,4.32
2017-04-19T04:32:47.430Z,4.34
2017-04-19T04:33:23.474Z,4.36
2017-04-19T04:33:45.740Z,4.40
2017-04-19T04:34:07.463Z,4.43
2017-04-19T04:35:09.978Z,4.38
2017-04-19T04:35:31.691Z,4.36
2017-04-19T04:35:53.395Z,4.38
2017-04-19T04:36:15.110Z,4.36
2017-04-19T04:36:36.811Z,4.38
2017-04-19T04:36:58.526Z,4.48
2017-04-19T04:37:20.284Z,4.57
2017-04-19T04:37:46.765Z,4.56
2017-04-19T04:38:08.463Z,4.57
2017-04-19T04:38:30.165Z,4.55
2017-04-19T04:38:52.065Z,4.57
2017-04-19T04:39:13.760Z,4.51
2017-04-19T04:39:35.461Z,4.37
2017-04-19T04:39:57.179Z,4.32
2017-04-19T04:40:18.995Z,4.29
2017-04-19T04:40:45.481Z,4.33
2017-04-19T04:41:07.188Z,4.34
2017-04-19T04:41:28.883Z,4.35
2017-04-19T04:41:50.631Z,4.36
2017-04-19T04:42:12.337Z,4.45
2017-04-19T04:42:34.055Z,4.45
2017-04-19T04:43:05.456Z,4.48
2017-04-19T04:43:27.184Z,4.52
2017-04-19T04:43:48.894Z,4.53
2017-04-19T04:44:10.610Z,4.46
2017-04-19T04:44:32.354Z,4.44
2017-04-19T04:44:54.085Z,4.43
2017-04-19T04:45:15.778Z,4.39
2017-04-19T04:45:37.485Z,4.31
2017-04-19T04:45:59.241Z,4.29
2017-04-19T04:46:20.950Z,4.31
2017-04-19T04:46:42.659Z,4.39
2017-04-19T04:47:04.348Z,4.42
2017-04-19T04:47:26.059Z,4.41
2017-04-19T04:47:47.844Z,4.37
2017-04-19T04:48:09.571Z,4.23
2017-04-19T04:48:31.330Z,4.24
2017-04-19T04:48:57.809Z,4.26
2017-04-19T04:49:19.505Z,4.38
2017-04-19T04:50:22.042Z,4.32
2017-04-19T04:50:48.551Z,4.26
2017-04-19T04:51:15.042Z,4.26
2017-04-19T04:51:36.733Z,4.40
2017-04-19T04:51:58.445Z,4.46
2017-04-19T04:52:29.824Z,4.38
2017-04-19T04:52:51.519Z,4.42
2017-04-19T04:53:13.261Z,4.43
2017-04-19T04:53:34.966Z,4.38
2017-04-19T04:53:56.730Z,4.29
2017-04-19T04:54:28.011Z,4.14
2017-04-19T04:54:49.712Z,4.09
2017-04-19T04:55:11.470Z,4.07
2017-04-19T04:55:47.548Z,4.23
2017-04-19T04:56:55.441Z,4.18
2017-04-19T04:57:17.146Z,4.20
2017-04-19T04:57:38.852Z,4.27
2017-04-19T04:58:10.101Z,4.37
2017-04-19T04:58:31.799Z,4.37
2017-04-19T04:59:03.077Z,4.32
2017-04-19T04:59:24.795Z,4.41
2017-04-19T04:59:46.503Z,4.43
2017-04-19T05:00:17.769Z,4.52
2017-04-19T05:00:39.515Z,4.56
2017-04-19T05:01:01.245Z,4.48
2017-04-19T05:01:32.547Z,4.45
2017-04-19T05:01:54.386Z,4.48
2017-04-19T05:03:01.719Z,4.66
2017-04-19T05:03:23.509Z,4.78
2017-04-19T05:03:54.793Z,4.76
2017-04-19T05:04:16.537Z,4.77
2017-04-19T05:04:52.569Z,4.62
2017-04-19T05:05:14.890Z,4.46
2017-04-19T05:05:46.158Z,4.38
2017-04-19T05:06:07.893Z,4.29
2017-04-19T05:06:34.381Z,4.36
2017-04-19T05:06:56.103Z,4.49
2017-04-19T05:07:17.812Z,4.52
2017-04-19T05:07:39.514Z,4.56
2017-04-19T05:08:01.235Z,4.56
2017-04-19T05:08:27.715Z,4.68
2017-04-19T05:08:49.407Z,4.77
2017-04-19T05:09:11.106Z,4.80
2017-04-19T05:09:37.587Z,4.77
2017-04-19T05:09:59.291Z,4.75
2017-04-19T05:10:20.995Z,4.67
2017-04-19T05:10:42.699Z,4.67
2017-04-19T05:11:04.412Z,4.74
2017-04-19T05:11:30.906Z,4.67
2017-04-19T05:11:52.619Z,4.48
2017-04-19T05:12:14.339Z,4.45
2017-04-19T05:12:40.863Z,4.35
2017-04-19T05:13:02.554Z,4.23
2017-04-19T05:13:24.267Z,4.23
2017-04-19T05:13:45.978Z,4.31
2017-04-19T05:14:07.667Z,4.28
2017-04-19T05:14:34.372Z,4.34
2017-04-19T05:14:56.085Z,4.35
2017-04-19T05:15:17.801Z,4.35
2017-04-19T05:15:44.356Z,4.40
2017-04-19T05:16:08.461Z,4.50
2017-04-19T05:16:34.935Z,4.54
2017-04-19T05:16:56.632Z,4.59
2017-04-19T05:17:23.126Z,4.61
2017-04-19T05:17:44.846Z,4.66
2017-04-19T05:18:16.110Z,4.70
2017-04-19T05:18:37.819Z,4.61
2017-04-19T05:18:59.525Z,4.62
2017-04-19T05:19:21.247Z,4.58
2017-04-19T05:19:43.107Z,4.59
2017-04-19T05:20:04.832Z,4.51
2017-04-19T05:20:26.532Z,4.54
2017-04-19T05:20:48.269Z,4.64
2017-04-19T05:21:09.972Z,4.72
2017-04-19T05:21:36.448Z,4.78
2017-04-19T05:21:58.148Z,4.78
2017-04-19T05:22:34.181Z,4.54
2017-04-19T05:22:56.660Z,4.57
2017-04-19T05:23:27.918Z,4.49
2017-04-19T05:23:49.695Z,4.45
2017-04-19T05:24:11.409Z,4.46
2017-04-19T05:24:37.952Z,4.48
2017-04-19T05:25:02.425Z,4.56
2017-04-19T05:25:24.166Z,4.59
2017-04-19T05:25:45.883Z,4.68
2017-04-19T05:26:21.918Z,4.72
2017-04-19T05:26:44.426Z,4.65
2017-04-19T05:27:06.122Z,4.75
2017-04-19T05:27:28.242Z,4.65
2017-04-19T05:27:49.941Z,4.42
2017-04-19T05:28:11.637Z,4.37
2017-04-19T05:28:33.334Z,4.38
2017-04-19T05:28:55.057Z,4.41
2017-04-19T05:29:16.776Z,4.44
2017-04-19T05:29:44.485Z,4.46
2017-04-19T05:30:08.970Z,4.46
2017-04-19T05:30:30.509Z,4.38
2017-04-19T05:30:57.017Z,4.43
2017-04-19T05:31:24.772Z,4.53
2017-04-19T05:31:46.497Z,4.45
2017-04-19T05:32:08.248Z,4.32
2017-04-19T05:32:34.720Z,4.27
2017-04-19T05:32:56.684Z,4.39
2017-04-19T05:33:23.162Z,4.51
2017-04-19T05:33:44.954Z,4.37
2017-04-19T05:34:06.663Z,4.32
2017-04-19T05:34:28.383Z,4.23
2017-04-19T05:34:50.078Z,4.27
2017-04-19T05:35:11.875Z,4.24
2017-04-19T05:35:33.590Z,4.24
2017-04-19T05:35:55.283Z,4.13
2017-04-19T05:36:16.999Z,4.17
2017-04-19T05:36:43.568Z,4.30
2017-04-19T05:37:05.265Z,4.33